Weather at Hughes/Space & Comm. Heliport [CLOSED]

Public forecast

Using degrees Fahrenheit for public forecast. Weather courtesy of forecast.io.

Closest aviation weather report (METAR) to Hughes/Space & Comm. Heliport

Closest report is Los Angeles International Airport, 0.9 nm (1.6 km) NW. Retrieved 2021/01/27 01:53 UTC (8 minutes ago):

KLAX 270153Z 25004KT 10SM FEW040 FEW120 SCT250 11/M01 A3008 RMK AO2 SLP186 T01061011

Closest aviation forecast (TAF) to Hughes/Space & Comm. Heliport

Closest forecast is Los Angeles International Airport, 0.9 nm (1.6 km) NW. Retrieved 2021-01-27 00:33 UTC (1 hour ago):

TAF KLAX 262330Z 2700/2806 22006KT P6SM SCT200 FM270300 22006KT P6SM BKN150 FM270700 14008KT P6SM SCT050 OVC090 FM271100 11006KT P6SM OVC040 FM271400 11010KT P6SM OVC040 FM271700 13010KT P6SM VCSH OVC040 FM271900 17008KT P6SM VCSH OVC040